Time;durP1;ratioP1;P1;durP2;ratioP2;P2;SDS_P1;SDS_P2;PMS_P1;PMS_P2;Temp;Humidity;BMP_temperature;BMP_pressure;BME280_temperature;BME280_humidity;BME280_pressure;Samples;Min_cycle;Max_cycle;Signal;HPM_P1;HPM_P2
2022/02/21 00:09:23;;;;;;;6.63;3.05;;;;;;;;;;19815895;30;20504;-60
2022/02/21 00:19:25;;;;;;;5.60;3.13;;;;;;;;;;19819339;29;20055;-60
2022/02/21 00:29:29;;;;;;;7.68;4.38;;;;;;;;;;19829966;29;20142;-59
2022/02/21 00:39:31;;;;;;;10.65;4.78;;;;;;;;;;19830842;30;20059;-59
2022/02/21 00:49:33;;;;;;;6.82;3.33;;;;;;;;;;19829083;30;20062;-60
2022/02/21 00:59:35;;;;;;;7.43;3.75;;;;;;;;;;19829531;30;20532;-57
2022/02/21 01:09:37;;;;;;;5.72;2.72;;;;;;;;;;19827813;30;20434;-59
2022/02/21 01:19:39;;;;;;;6.05;2.65;;;;;;;;;;19827681;30;20214;-62
2022/02/21 01:29:41;;;;;;;4.55;2.92;;;;;;;;;;19825007;29;20097;-59
2022/02/21 01:39:43;;;;;;;4.38;2.53;;;;;;;;;;19826089;30;20066;-58
2022/02/21 01:49:46;;;;;;;4.97;2.53;;;;;;;;;;19825856;30;20062;-61
2022/02/21 01:59:48;;;;;;;5.15;3.38;;;;;;;;;;19824224;30;20107;-63
2022/02/21 02:09:50;;;;;;;7.20;3.20;;;;;;;;;;19824062;30;20055;-60
2022/02/21 02:19:53;;;;;;;6.35;2.75;;;;;;;;;;19823429;30;20103;-61
2022/02/21 02:29:58;;;;;;;4.60;2.97;;;;;;;;;;19821743;30;20067;-59
2022/02/21 02:40:03;;;;;;;6.55;3.33;;;;;;;;;;19821400;29;20550;-60
2022/02/21 02:50:22;;;;;;;5.10;3.42;;;;;;;;;;19821025;30;20498;-60
2022/02/21 03:00:31;;;;;;;5.50;3.60;;;;;;;;;;19819823;30;20059;-59
2022/02/21 03:10:35;;;;;;;8.68;3.50;;;;;;;;;;19819453;30;20485;-60
2022/02/21 03:20:40;;;;;;;7.47;4.00;;;;;;;;;;19818587;29;20091;-58
2022/02/21 03:30:44;;;;;;;8.23;3.70;;;;;;;;;;19817767;30;20055;-58
2022/02/21 03:40:48;;;;;;;5.53;3.40;;;;;;;;;;19817179;30;20051;-58
2022/02/21 03:50:52;;;;;;;5.30;3.50;;;;;;;;;;19816768;30;20419;-60
2022/02/21 04:00:55;;;;;;;5.18;3.28;;;;;;;;;;19816577;30;20496;-58
2022/02/21 04:10:58;;;;;;;7.65;4.57;;;;;;;;;;19815551;30;20051;-59
2022/02/21 04:21:01;;;;;;;6.97;3.47;;;;;;;;;;19816188;29;20058;-59
2022/02/21 04:31:04;;;;;;;4.53;2.88;;;;;;;;;;19814752;30;20108;-57
2022/02/21 04:41:06;;;;;;;6.30;3.10;;;;;;;;;;19814395;30;20059;-58
2022/02/21 04:51:11;;;;;;;5.27;3.10;;;;;;;;;;19815187;30;20508;-58
2022/02/21 05:01:13;;;;;;;6.30;3.47;;;;;;;;;;19813810;30;20136;-60
2022/02/21 05:11:15;;;;;;;5.43;3.00;;;;;;;;;;19824695;29;20063;-61
2022/02/21 05:21:16;;;;;;;6.85;3.40;;;;;;;;;;19826749;29;20101;-61
2022/02/21 05:31:18;;;;;;;6.03;3.03;;;;;;;;;;19826368;30;20059;-62
2022/02/21 05:41:20;;;;;;;6.55;3.17;;;;;;;;;;19826190;30;20092;-58
2022/02/21 05:51:22;;;;;;;5.22;3.50;;;;;;;;;;19824758;30;20075;-64
2022/02/21 06:01:24;;;;;;;5.63;3.30;;;;;;;;;;19825065;30;20484;-62
2022/02/21 06:11:25;;;;;;;5.00;3.75;;;;;;;;;;19825572;30;20496;-63
2022/02/21 06:21:28;;;;;;;10.27;4.53;;;;;;;;;;19822611;29;20063;-59
2022/02/21 06:31:31;;;;;;;6.88;4.35;;;;;;;;;;19821976;30;20505;-58
2022/02/21 06:41:33;;;;;;;11.07;4.88;;;;;;;;;;19821614;30;20116;-62
2022/02/21 06:51:35;;;;;;;11.52;4.90;;;;;;;;;;19820134;30;20099;-61
2022/02/21 07:01:37;;;;;;;8.98;4.88;;;;;;;;;;19819792;30;20104;-66
2022/02/21 07:11:39;;;;;;;60.95;32.65;;;;;;;;;;19820098;30;20066;-65
2022/02/21 07:21:44;;;;;;;10.95;7.07;;;;;;;;;;19818754;29;20082;-65
2022/02/21 07:31:46;;;;;;;14.60;7.27;;;;;;;;;;19816309;29;20412;-60
2022/02/21 07:41:47;;;;;;;9.18;5.35;;;;;;;;;;19816882;30;20059;-64
2022/02/21 07:51:49;;;;;;;8.48;4.07;;;;;;;;;;19816119;30;20413;-59
2022/02/21 08:01:51;;;;;;;11.15;4.10;;;;;;;;;;19800291;30;20519;-57
2022/02/21 08:11:53;;;;;;;10.88;6.10;;;;;;;;;;19814981;30;20055;-57
2022/02/21 08:21:54;;;;;;;11.73;4.60;;;;;;;;;;19815049;29;20051;-62
2022/02/21 08:31:56;;;;;;;12.18;5.22;;;;;;;;;;19816466;30;20096;-60
2022/02/21 08:41:58;;;;;;;16.73;6.22;;;;;;;;;;19819726;29;20051;-61
2022/02/21 08:52:00;;;;;;;10.38;5.20;;;;;;;;;;19829054;30;20509;-64
2022/02/21 09:02:02;;;;;;;12.77;5.68;;;;;;;;;;19828277;30;20055;-61
2022/02/21 09:12:04;;;;;;;11.80;5.72;;;;;;;;;;19811298;30;20063;-59
2022/02/21 09:22:06;;;;;;;13.07;5.82;;;;;;;;;;19826272;29;20051;-61
2022/02/21 09:32:08;;;;;;;15.80;6.70;;;;;;;;;;19826005;30;20134;-60
2022/02/21 09:42:11;;;;;;;14.70;6.03;;;;;;;;;;19825627;30;20059;-61
2022/02/21 09:52:18;;;;;;;10.63;6.20;;;;;;;;;;19823963;29;20112;-60
2022/02/21 10:02:26;;;;;;;10.45;5.00;;;;;;;;;;19824770;30;20422;-60
2022/02/21 10:12:28;;;;;;;4.38;2.67;;;;;;;;;;19830020;29;20057;-62
2022/02/21 10:22:32;;;;;;;11.80;4.38;;;;;;;;;;19851379;29;20135;-59
2022/02/21 10:32:35;;;;;;;10.70;5.40;;;;;;;;;;19852578;29;20081;-59
2022/02/21 10:42:36;;;;;;;9.95;5.00;;;;;;;;;;19852884;29;20059;-59
2022/02/21 10:52:39;;;;;;;13.75;5.13;;;;;;;;;;19848594;29;20058;-60
2022/02/21 11:02:43;;;;;;;19.97;5.27;;;;;;;;;;19827152;29;20075;-58
2022/02/21 11:12:50;;;;;;;9.90;4.28;;;;;;;;;;19810200;29;20059;-55
2022/02/21 11:22:52;;;;;;;8.82;4.45;;;;;;;;;;19812458;29;20054;-55
2022/02/21 11:33:08;;;;;;;4.95;3.65;;;;;;;;;;19797413;30;20111;-60
2022/02/21 11:43:28;;;;;;;7.03;3.30;;;;;;;;;;19802849;30;20112;-60
2022/02/21 11:53:30;;;;;;;9.10;4.20;;;;;;;;;;19822068;29;20108;-60
2022/02/21 12:03:32;;;;;;;13.98;5.15;;;;;;;;;;19810734;29;20105;-64
2022/02/21 12:13:35;;;;;;;8.90;5.40;;;;;;;;;;19755464;29;20087;-59
2022/02/21 12:24:00;;;;;;;10.40;4.68;;;;;;;;;;19767202;29;20189;-56
2022/02/21 12:34:02;;;;;;;10.18;4.45;;;;;;;;;;19809961;29;20090;-58
2022/02/21 12:44:05;;;;;;;8.35;4.65;;;;;;;;;;19827951;29;20063;-61
2022/02/21 12:54:07;;;;;;;7.15;4.28;;;;;;;;;;19813616;30;20059;-56
2022/02/21 13:04:09;;;;;;;11.70;5.40;;;;;;;;;;19813532;30;20090;-57
2022/02/21 13:14:11;;;;;;;10.13;5.50;;;;;;;;;;19813097;30;20498;-58
2022/02/21 13:24:17;;;;;;;9.60;6.15;;;;;;;;;;19813041;29;20146;-72
2022/02/21 13:34:39;;;;;;;11.02;5.05;;;;;;;;;;19825730;30;20155;-69
2022/02/21 13:44:41;;;;;;;7.63;4.68;;;;;;;;;;19826502;30;20059;-71
2022/02/21 13:54:44;;;;;;;8.85;4.60;;;;;;;;;;19825006;30;20134;-70
2022/02/21 14:04:47;;;;;;;5.45;3.88;;;;;;;;;;19823738;30;20082;-70
2022/02/21 14:14:49;;;;;;;4.95;3.50;;;;;;;;;;19823472;30;20413;-69
2022/02/21 14:24:51;;;;;;;4.63;2.67;;;;;;;;;;19822166;29;20390;-62
2022/02/21 14:34:56;;;;;;;7.20;3.05;;;;;;;;;;19821793;30;20060;-70
2022/02/21 14:44:58;;;;;;;5.15;2.38;;;;;;;;;;19820063;29;20101;-62
2022/02/21 14:55:00;;;;;;;10.82;2.20;;;;;;;;;;19820301;30;20104;-71
2022/02/21 15:05:05;;;;;;;3.83;2.10;;;;;;;;;;19819727;30;20051;-66
2022/02/21 15:15:08;;;;;;;3.30;1.42;;;;;;;;;;19819483;30;20509;-60
2022/02/21 15:25:10;;;;;;;4.35;2.35;;;;;;;;;;19818519;29;20558;-60
2022/02/21 15:35:13;;;;;;;3.50;2.53;;;;;;;;;;19820025;30;20097;-63
2022/02/21 15:45:15;;;;;;;4.63;2.13;;;;;;;;;;19816272;30;20104;-60
2022/02/21 15:55:17;;;;;;;5.53;2.28;;;;;;;;;;19819239;29;20490;-60
2022/02/21 16:05:20;;;;;;;4.18;2.40;;;;;;;;;;19816153;30;20409;-66
2022/02/21 16:15:21;;;;;;;1.85;1.00;;;;;;;;;;19814659;30;20132;-67
2022/02/21 16:25:23;;;;;;;8.85;1.35;;;;;;;;;;19814282;29;20139;-70
2022/02/21 16:35:25;;;;;;;3.15;1.05;;;;;;;;;;19814897;30;20056;-64
2022/02/21 16:45:27;;;;;;;1.98;0.70;;;;;;;;;;19814935;30;20094;-62
2022/02/21 16:55:30;;;;;;;1.88;0.82;;;;;;;;;;19813389;30;20054;-59
2022/02/21 17:05:32;;;;;;;3.00;1.30;;;;;;;;;;19822676;30;20055;-70
2022/02/21 17:15:35;;;;;;;3.13;0.88;;;;;;;;;;19828405;30;20064;-69
2022/02/21 17:25:37;;;;;;;1.73;0.60;;;;;;;;;;19823608;29;20067;-70
2022/02/21 17:35:39;;;;;;;4.97;1.00;;;;;;;;;;19824459;30;20051;-64
2022/02/21 17:45:41;;;;;;;5.65;1.13;;;;;;;;;;19787263;29;20229;-63
2022/02/21 17:55:44;;;;;;;2.28;1.00;;;;;;;;;;19751065;30;20108;-63
2022/02/21 18:05:45;;;;;;;2.97;1.02;;;;;;;;;;19751506;30;20062;-59
2022/02/21 18:15:47;;;;;;;2.67;1.10;;;;;;;;;;19747909;30;20134;-62
2022/02/21 18:25:49;;;;;;;1.77;0.90;;;;;;;;;;19747530;30;20067;-58
2022/02/21 18:35:51;;;;;;;5.95;2.03;;;;;;;;;;19747764;30;20066;-62
2022/02/21 18:45:53;;;;;;;3.17;1.75;;;;;;;;;;19746237;30;20055;-63
2022/02/21 18:55:55;;;;;;;3.63;1.45;;;;;;;;;;19745787;30;20143;-61
2022/02/21 19:05:57;;;;;;;3.00;1.30;;;;;;;;;;19744447;30;20059;-70
2022/02/21 19:15:59;;;;;;;3.60;1.05;;;;;;;;;;19744897;30;20120;-65
2022/02/21 19:26:01;;;;;;;3.65;1.10;;;;;;;;;;19742941;29;20117;-64
2022/02/21 19:36:03;;;;;;;3.80;1.25;;;;;;;;;;19743193;30;20058;-58
2022/02/21 19:46:05;;;;;;;3.03;1.50;;;;;;;;;;19751874;30;20062;-61
2022/02/21 19:56:07;;;;;;;4.53;1.25;;;;;;;;;;19813990;30;20057;-63
2022/02/21 20:06:09;;;;;;;3.60;1.50;;;;;;;;;;19812588;30;20524;-56
2022/02/21 20:16:11;;;;;;;2.47;1.20;;;;;;;;;;19813610;30;20409;-57
2022/02/21 20:26:13;;;;;;;2.65;1.38;;;;;;;;;;19814320;29;20103;-57
2022/02/21 20:36:15;;;;;;;4.93;2.15;;;;;;;;;;19817968;29;20059;-56
2022/02/21 20:46:16;;;;;;;2.40;1.40;;;;;;;;;;19813320;30;20066;-57
2022/02/21 20:56:21;;;;;;;3.80;1.77;;;;;;;;;;19829242;30;20058;-57
2022/02/21 21:06:24;;;;;;;2.67;1.52;;;;;;;;;;19828214;30;20051;-56
2022/02/21 21:16:26;;;;;;;3.67;2.03;;;;;;;;;;19827544;30;20055;-56
2022/02/21 21:26:28;;;;;;;5.05;2.47;;;;;;;;;;19825274;29;20059;-56
2022/02/21 21:36:30;;;;;;;4.00;2.15;;;;;;;;;;19825505;30;20085;-58
2022/02/21 21:46:32;;;;;;;3.78;2.00;;;;;;;;;;19823726;29;20184;-58
2022/02/21 21:56:34;;;;;;;3.72;2.08;;;;;;;;;;19824164;30;20532;-58
2022/02/21 22:06:36;;;;;;;3.63;1.83;;;;;;;;;;19824192;30;20413;-57
2022/02/21 22:16:39;;;;;;;6.05;2.45;;;;;;;;;;19823495;30;20052;-58
2022/02/21 22:26:40;;;;;;;6.60;1.77;;;;;;;;;;19822132;29;20138;-58
2022/02/21 22:36:43;;;;;;;4.18;1.38;;;;;;;;;;19821842;30;20058;-57
2022/02/21 22:46:44;;;;;;;2.90;1.55;;;;;;;;;;19821131;30;20067;-56
2022/02/21 22:56:47;;;;;;;3.80;1.80;;;;;;;;;;19820785;30;20775;-57
2022/02/21 23:07:59;;;;;;;5.57;1.58;;;;;;;;;;19819860;29;20486;-57
2022/02/21 23:17:11;;;;;;;3.85;2.15;;;;;;;;;;19818908;30;20055;-58
2022/02/21 23:27:13;;;;;;;4.75;1.95;;;;;;;;;;19817518;29;20497;-57
2022/02/21 23:37:15;;;;;;;4.60;1.65;;;;;;;;;;19817672;30;20063;-57
2022/02/21 23:47:18;;;;;;;3.90;1.10;;;;;;;;;;19817527;30;20055;-57
2022/02/21 23:57:20;;;;;;;2.78;1.25;;;;;;;;;;19817249;30;20055;-55
